createdAt,value
2022-08-03T00:01:37.115Z,22.71
2022-08-03T00:04:07.951Z,22.70
2022-08-03T00:06:37.234Z,22.65
2022-08-03T00:09:08.417Z,22.65
2022-08-03T00:11:36.854Z,22.60
2022-08-03T00:14:06.334Z,22.58
2022-08-03T00:16:34.109Z,22.60
2022-08-03T00:19:03.399Z,22.53
2022-08-03T00:21:30.835Z,22.51
2022-08-03T00:23:58.173Z,22.44
2022-08-03T00:26:25.590Z,22.50
2022-08-03T00:28:52.985Z,22.47
2022-08-03T00:31:40.258Z,22.47
2022-08-03T00:34:07.709Z,22.45
2022-08-03T00:36:35.770Z,22.43
2022-08-03T00:39:03.326Z,22.38
2022-08-03T00:41:30.721Z,22.40
2022-08-03T00:43:58.066Z,22.41
2022-08-03T00:46:25.436Z,22.38
2022-08-03T00:48:53.354Z,22.35
2022-08-03T00:51:24.152Z,22.32
2022-08-03T00:53:52.028Z,22.30
2022-08-03T00:56:19.394Z,22.29
2022-08-03T00:58:47.343Z,22.31
2022-08-03T01:01:15.427Z,22.23
2022-08-03T01:03:43.225Z,22.21
2022-08-03T01:06:25.599Z,22.23
2022-08-03T01:09:07.280Z,22.16
2022-08-03T01:11:37.453Z,22.16
2022-08-03T01:15:00.455Z,22.16
2022-08-03T01:17:49.719Z,22.17
2022-08-03T01:20:19.246Z,22.10
2022-08-03T01:23:16.309Z,22.06
2022-08-03T01:26:03.572Z,22.08
2022-08-03T01:28:58.651Z,22.09
2022-08-03T01:32:53.532Z,22.05
2022-08-03T01:35:22.284Z,22.00
2022-08-03T01:38:01.238Z,22.01
2022-08-03T01:40:30.436Z,21.95
2022-08-03T01:43:00.047Z,21.98
2022-08-03T01:45:28.748Z,21.90
2022-08-03T01:48:02.658Z,21.92
2022-08-03T01:50:31.803Z,21.89
2022-08-03T01:53:00.146Z,21.86
2022-08-03T01:55:29.511Z,21.84
2022-08-03T01:58:04.784Z,21.85
2022-08-03T02:00:37.814Z,21.81
2022-08-03T02:03:07.402Z,21.77
2022-08-03T02:05:36.347Z,21.79
2022-08-03T02:08:07.790Z,21.79
2022-08-03T02:10:37.771Z,21.79
2022-08-03T02:13:08.609Z,21.80
2022-08-03T02:15:38.637Z,21.75
2022-08-03T02:18:08.755Z,21.75
2022-08-03T02:20:39.057Z,21.83
2022-08-03T02:23:07.301Z,21.79
2022-08-03T02:25:41.783Z,21.79
2022-08-03T02:28:17.267Z,21.75
2022-08-03T02:30:51.829Z,21.72
2022-08-03T02:33:26.738Z,21.69
2022-08-03T02:35:54.319Z,21.69
2022-08-03T02:38:28.201Z,21.68
2022-08-03T02:40:57.479Z,21.72
2022-08-03T02:43:25.636Z,21.69
2022-08-03T02:45:54.467Z,21.65
2022-08-03T02:48:26.966Z,21.59
2022-08-03T02:50:57.171Z,21.52
2022-08-03T02:53:28.921Z,21.54
2022-08-03T02:55:56.856Z,21.48
2022-08-03T02:58:25.896Z,21.40
2022-08-03T03:00:54.443Z,21.43
2022-08-03T03:03:22.556Z,21.50
2022-08-03T03:05:52.960Z,21.48
2022-08-03T03:08:27.474Z,21.44
2022-08-03T03:11:01.640Z,21.45
2022-08-03T03:13:32.433Z,21.38
2022-08-03T03:16:03.855Z,21.38
2022-08-03T03:18:33.671Z,21.36
2022-08-03T03:21:03.831Z,21.31
2022-08-03T03:23:32.349Z,21.31
2022-08-03T03:26:02.406Z,21.34
2022-08-03T03:28:30.874Z,21.28
2022-08-03T03:30:59.293Z,21.28
2022-08-03T03:33:28.477Z,21.32
2022-08-03T03:35:57.671Z,21.29
2022-08-03T03:38:25.071Z,21.34
2022-08-03T03:40:52.603Z,21.31
2022-08-03T03:43:20.116Z,21.28
2022-08-03T03:45:51.673Z,21.37
2022-08-03T03:48:23.753Z,21.27
2022-08-03T03:50:51.299Z,21.28
2022-08-03T03:53:18.864Z,21.26
2022-08-03T03:55:59.406Z,21.29
2022-08-03T03:58:31.082Z,21.21
2022-08-03T04:00:58.613Z,21.20
2022-08-03T04:03:25.979Z,21.16
2022-08-03T04:06:11.857Z,21.20
2022-08-03T04:08:59.002Z,21.11
2022-08-03T04:11:30.387Z,21.10
2022-08-03T04:14:19.318Z,21.10
2022-08-03T04:17:05.078Z,21.12
2022-08-03T04:19:35.759Z,21.13
2022-08-03T04:22:09.914Z,21.13
2022-08-03T04:24:49.849Z,21.11
2022-08-03T04:27:21.782Z,21.09
2022-08-03T04:29:51.795Z,21.08
2022-08-03T04:32:20.848Z,21.08
2022-08-03T04:34:48.409Z,21.08
2022-08-03T04:37:36.152Z,21.08
2022-08-03T04:40:08.907Z,21.11
2022-08-03T04:42:39.611Z,21.10
2022-08-03T04:45:10.047Z,21.11
2022-08-03T04:47:39.133Z,21.16
2022-08-03T04:50:12.219Z,21.23
2022-08-03T04:52:40.994Z,21.19
2022-08-03T04:55:08.906Z,21.22
2022-08-03T04:57:37.500Z,21.23
2022-08-03T05:00:06.803Z,21.26
2022-08-03T05:02:35.111Z,21.27
2022-08-03T05:05:02.448Z,21.30
2022-08-03T05:07:36.616Z,21.37
2022-08-03T05:10:15.186Z,21.37
2022-08-03T05:12:44.683Z,21.47
2022-08-03T05:15:12.859Z,21.56
2022-08-03T05:17:40.575Z,21.52
2022-08-03T05:20:08.759Z,21.57
2022-08-03T05:22:36.135Z,21.60
2022-08-03T05:25:03.734Z,21.69
2022-08-03T05:27:31.183Z,21.75
2022-08-03T05:30:31.110Z,21.82
2022-08-03T05:32:46.518Z,23.50
2022-08-03T05:35:55.907Z,24.34
2022-08-03T05:38:02.737Z,24.92
2022-08-03T05:40:31.184Z,25.30
2022-08-03T05:42:58.965Z,25.53
2022-08-03T05:45:28.354Z,25.71
2022-08-03T05:47:56.337Z,25.83
2022-08-03T05:50:24.402Z,25.94
2022-08-03T05:52:55.252Z,26.07
2022-08-03T05:55:22.752Z,26.12
2022-08-03T05:57:50.182Z,26.21
2022-08-03T06:00:18.128Z,26.28
2022-08-03T06:02:46.487Z,26.32
2022-08-03T06:05:13.920Z,26.37
2022-08-03T06:07:41.349Z,26.40
2022-08-03T06:10:36.157Z,26.44
2022-08-03T06:12:56.735Z,26.49
2022-08-03T06:15:24.152Z,26.54
2022-08-03T06:17:52.619Z,26.57
2022-08-03T06:20:21.440Z,26.62
2022-08-03T06:23:00.156Z,26.67
2022-08-03T06:25:28.953Z,26.66
2022-08-03T06:27:56.520Z,26.74
2022-08-03T06:30:24.734Z,26.77
2022-08-03T06:32:52.544Z,26.77
2022-08-03T06:35:20.665Z,26.81
2022-08-03T06:37:51.091Z,26.89
2022-08-03T06:40:31.203Z,26.84
2022-08-03T06:42:59.895Z,26.85
2022-08-03T06:45:31.912Z,26.91
2022-08-03T06:48:08.236Z,26.90
2022-08-03T06:50:37.796Z,26.93
2022-08-03T06:53:05.976Z,26.95
2022-08-03T06:55:33.723Z,27.00
2022-08-03T06:58:09.237Z,27.07
2022-08-03T07:00:36.656Z,27.07
2022-08-03T07:03:04.279Z,27.10
2022-08-03T07:05:33.592Z,27.02
2022-08-03T07:08:02.024Z,27.04
2022-08-03T07:10:29.560Z,27.07
2022-08-03T07:12:57.056Z,27.07
2022-08-03T07:15:53.907Z,27.06
2022-08-03T07:18:12.892Z,27.09
2022-08-03T07:20:40.894Z,27.15
2022-08-03T07:23:08.238Z,27.22
2022-08-03T07:25:35.903Z,27.19
2022-08-03T07:28:03.787Z,27.18
2022-08-03T07:30:31.193Z,27.18
2022-08-03T07:32:58.652Z,27.19
2022-08-03T07:35:26.442Z,27.15
2022-08-03T07:37:55.128Z,27.12
2022-08-03T07:40:23.126Z,27.12
2022-08-03T07:42:53.659Z,27.11
2022-08-03T07:45:24.629Z,27.27
2022-08-03T07:47:53.665Z,27.28
2022-08-03T07:50:22.276Z,27.34
2022-08-03T07:52:51.575Z,27.40
2022-08-03T07:55:20.690Z,27.40
2022-08-03T07:57:58.964Z,27.22
2022-08-03T08:00:26.444Z,27.16
2022-08-03T08:02:53.753Z,27.14
2022-08-03T08:05:21.233Z,27.12
2022-08-03T08:07:51.444Z,27.15
2022-08-03T08:10:19.434Z,27.17
2022-08-03T08:12:47.294Z,27.32
2022-08-03T08:15:14.879Z,27.34
2022-08-03T08:17:50.654Z,27.29
2022-08-03T08:20:34.885Z,27.44
2022-08-03T08:23:09.603Z,27.35
2022-08-03T08:25:56.209Z,27.45
2022-08-03T08:28:32.338Z,27.36
2022-08-03T08:31:01.539Z,27.34
2022-08-03T08:33:42.063Z,27.23
2022-08-03T08:36:15.876Z,27.45
2022-08-03T08:38:45.121Z,27.55
2022-08-03T08:41:13.968Z,27.63
2022-08-03T08:43:42.090Z,27.63
2022-08-03T08:46:13.130Z,27.45
2022-08-03T08:48:51.900Z,27.65
2022-08-03T08:51:21.966Z,27.55
2022-08-03T08:53:53.034Z,27.44
2022-08-03T08:56:22.927Z,27.54
2022-08-03T08:58:58.037Z,27.31
2022-08-03T09:01:26.213Z,27.35
2022-08-03T09:03:54.773Z,27.38
2022-08-03T09:06:23.110Z,27.68
2022-08-03T09:08:50.685Z,27.59
2022-08-03T09:11:51.664Z,27.53
2022-08-03T09:14:36.585Z,27.48
2022-08-03T09:17:02.175Z,27.31
2022-08-03T09:19:31.708Z,27.56
2022-08-03T09:22:17.464Z,27.33
2022-08-03T09:25:24.380Z,27.33
2022-08-03T09:27:52.178Z,27.43
2022-08-03T09:30:34.235Z,27.73
2022-08-03T09:33:10.865Z,27.59
2022-08-03T09:35:55.318Z,27.46
2022-08-03T09:38:28.493Z,27.68
2022-08-03T09:41:00.410Z,27.87
2022-08-03T09:43:28.695Z,28.00
2022-08-03T09:46:07.498Z,28.03
2022-08-03T09:48:36.847Z,28.04
2022-08-03T09:51:12.795Z,27.91
2022-08-03T09:53:58.781Z,27.85
2022-08-03T09:56:39.116Z,27.77
2022-08-03T09:59:06.715Z,28.23
2022-08-03T10:01:35.727Z,28.35
2022-08-03T10:04:05.180Z,28.85
2022-08-03T10:06:33.019Z,28.58
2022-08-03T10:09:10.454Z,28.53
2022-08-03T10:11:41.996Z,28.45
2022-08-03T10:14:18.861Z,28.68
2022-08-03T10:16:47.635Z,29.28
2022-08-03T10:19:15.790Z,28.98
2022-08-03T10:21:53.687Z,28.94
2022-08-03T10:24:27.308Z,28.83
2022-08-03T10:27:03.339Z,28.56
2022-08-03T10:29:37.189Z,28.77
2022-08-03T10:32:10.613Z,28.69
2022-08-03T10:34:44.468Z,28.65
2022-08-03T10:37:13.859Z,28.81
2022-08-03T10:39:53.458Z,29.23
2022-08-03T10:42:28.236Z,28.70
2022-08-03T10:45:06.916Z,28.62
2022-08-03T10:47:35.725Z,28.61
2022-08-03T10:50:03.714Z,28.56
2022-08-03T10:52:32.972Z,29.12
2022-08-03T10:55:50.192Z,29.64
2022-08-03T10:58:37.673Z,29.33
2022-08-03T11:02:00.105Z,29.61
2022-08-03T11:04:30.032Z,29.72
2022-08-03T11:07:16.891Z,29.22
2022-08-03T11:09:48.510Z,28.96
2022-08-03T11:12:28.480Z,28.60
2022-08-03T11:15:08.736Z,28.73
2022-08-03T11:17:46.548Z,28.50
2022-08-03T11:20:57.804Z,28.39
2022-08-03T11:24:04.020Z,29.10
2022-08-03T11:26:34.161Z,29.39
2022-08-03T11:29:30.484Z,30.29
2022-08-03T11:31:58.012Z,30.02
2022-08-03T11:34:25.501Z,30.87
2022-08-03T11:37:22.705Z,30.74
2022-08-03T11:39:54.434Z,31.11
2022-08-03T11:42:24.746Z,30.47
2022-08-03T11:44:55.775Z,30.49
2022-08-03T11:47:29.999Z,30.70
2022-08-03T11:50:00.704Z,31.15
2022-08-03T11:52:35.597Z,31.08
2022-08-03T11:55:08.607Z,30.83
2022-08-03T11:59:00.956Z,30.71
2022-08-03T12:00:26.283Z,30.60
2022-08-03T12:03:14.853Z,30.19
2022-08-03T12:05:51.607Z,30.31
2022-08-03T12:08:31.068Z,30.75
2022-08-03T12:11:00.452Z,30.21
2022-08-03T12:14:44.423Z,30.62
2022-08-03T12:16:25.613Z,31.25
2022-08-03T12:19:09.297Z,30.86
2022-08-03T12:21:57.162Z,30.98
2022-08-03T12:24:28.420Z,31.07
2022-08-03T12:27:00.031Z,30.70
2022-08-03T12:29:27.817Z,30.58
2022-08-03T12:31:55.995Z,30.56
2022-08-03T12:34:23.783Z,30.93
2022-08-03T12:36:54.085Z,30.53
2022-08-03T12:39:26.403Z,30.59
2022-08-03T12:41:55.586Z,31.06
2022-08-03T12:44:34.562Z,31.43
2022-08-03T12:47:03.275Z,31.46
2022-08-03T12:49:46.349Z,31.26
2022-08-03T12:52:14.054Z,31.89
2022-08-03T12:54:41.686Z,31.18
2022-08-03T12:57:15.902Z,30.59
2022-08-03T12:59:53.395Z,30.18
2022-08-03T13:02:26.645Z,30.27
2022-08-03T13:04:55.317Z,30.18
2022-08-03T13:07:23.359Z,30.16
2022-08-03T13:09:53.669Z,29.95
2022-08-03T13:12:27.075Z,31.25
2022-08-03T13:14:57.698Z,32.08
2022-08-03T13:17:25.875Z,32.45
2022-08-03T13:19:53.931Z,32.42
2022-08-03T13:22:31.036Z,32.74
2022-08-03T13:24:58.605Z,31.97
2022-08-03T13:28:03.126Z,31.96
2022-08-03T13:30:17.911Z,31.43
2022-08-03T13:32:58.746Z,30.66
2022-08-03T13:35:26.275Z,30.21
2022-08-03T13:37:53.699Z,30.11
2022-08-03T13:40:23.614Z,30.83
2022-08-03T13:42:57.816Z,30.71
2022-08-03T13:45:25.318Z,30.25
2022-08-03T13:47:52.664Z,29.98
2022-08-03T13:50:20.092Z,30.13
2022-08-03T13:52:48.014Z,30.43
2022-08-03T13:55:15.496Z,30.33
2022-08-03T13:58:06.580Z,30.08
2022-08-03T14:00:30.400Z,30.18
2022-08-03T14:03:06.592Z,30.25
2022-08-03T14:05:38.714Z,29.62
2022-08-03T14:08:07.583Z,30.20
2022-08-03T14:10:37.311Z,30.53
2022-08-03T14:13:05.519Z,30.25
2022-08-03T14:15:37.726Z,30.68
2022-08-03T14:18:15.791Z,30.79
2022-08-03T14:20:56.430Z,30.79
2022-08-03T14:23:24.247Z,30.45
2022-08-03T14:25:53.072Z,30.23
2022-08-03T14:28:24.963Z,30.29
2022-08-03T14:30:56.089Z,30.89
2022-08-03T14:33:24.586Z,30.56
2022-08-03T14:35:52.416Z,30.60
2022-08-03T14:38:20.292Z,30.55
2022-08-03T14:40:48.742Z,30.32
2022-08-03T14:43:21.331Z,30.39
2022-08-03T14:45:52.423Z,30.10
2022-08-03T14:50:30.828Z,29.82
2022-08-03T14:51:12.412Z,30.30
2022-08-03T14:53:40.114Z,30.27
2022-08-03T14:56:10.400Z,29.90
2022-08-03T14:58:38.492Z,29.91
2022-08-03T15:02:05.201Z,30.22
2022-08-03T15:03:54.903Z,36.37
2022-08-03T15:06:22.295Z,36.29
2022-08-03T15:09:22.690Z,36.11
2022-08-03T15:11:37.395Z,36.31
2022-08-03T15:14:09.018Z,36.06
2022-08-03T15:16:37.402Z,35.88
2022-08-03T15:19:59.465Z,35.64
2022-08-03T15:21:52.720Z,35.55
2022-08-03T15:24:20.760Z,35.49
2022-08-03T15:26:48.123Z,35.38
2022-08-03T15:30:08.849Z,35.43
2022-08-03T15:32:07.335Z,35.43
2022-08-03T15:34:36.689Z,35.54
2022-08-03T15:37:15.171Z,35.63
2022-08-03T15:39:58.797Z,35.93
2022-08-03T15:42:33.041Z,36.06
2022-08-03T15:45:00.748Z,36.10
2022-08-03T15:47:28.471Z,36.22
2022-08-03T15:49:57.185Z,36.23
2022-08-03T15:52:24.705Z,36.24
2022-08-03T15:54:52.120Z,36.14
2022-08-03T15:57:20.857Z,36.22
2022-08-03T15:59:49.537Z,36.23
2022-08-03T16:02:18.418Z,36.33
2022-08-03T16:04:46.396Z,35.97
2022-08-03T16:07:15.907Z,35.88
2022-08-03T16:09:44.010Z,35.85
2022-08-03T16:12:16.121Z,35.75
2022-08-03T16:14:52.259Z,35.87
2022-08-03T16:17:21.710Z,35.57
2022-08-03T16:19:49.697Z,35.65
2022-08-03T16:22:19.592Z,35.82
2022-08-03T16:24:49.763Z,35.82
2022-08-03T16:27:37.304Z,36.04
2022-08-03T16:30:06.938Z,36.21
2022-08-03T16:32:34.535Z,36.11
2022-08-03T16:35:02.043Z,36.04
2022-08-03T16:37:38.519Z,36.18
2022-08-03T16:40:19.059Z,36.12
2022-08-03T16:42:47.101Z,35.72
2022-08-03T16:45:14.901Z,35.92
2022-08-03T16:47:43.423Z,35.99
2022-08-03T16:50:15.750Z,35.91
2022-08-03T16:52:47.401Z,36.13
2022-08-03T16:55:16.109Z,36.23
2022-08-03T16:58:04.949Z,36.09
2022-08-03T17:00:41.933Z,36.24
2022-08-03T17:03:18.581Z,36.23
2022-08-03T17:05:49.753Z,36.15
2022-08-03T17:08:26.071Z,35.91
2022-08-03T17:10:55.025Z,35.98
2022-08-03T17:13:22.819Z,36.00
2022-08-03T17:16:00.895Z,35.83
2022-08-03T17:18:36.059Z,35.84
2022-08-03T17:21:08.017Z,35.59
2022-08-03T17:23:46.334Z,35.54
2022-08-03T17:26:21.860Z,35.55
2022-08-03T17:28:57.239Z,35.48
2022-08-03T17:31:31.771Z,35.57
2022-08-03T17:34:02.110Z,35.54
2022-08-03T17:37:02.167Z,35.32
2022-08-03T17:39:35.820Z,35.03
2022-08-03T17:42:29.969Z,34.64
2022-08-03T17:44:57.853Z,34.42
2022-08-03T17:47:29.233Z,34.00
2022-08-03T17:50:24.954Z,33.88
2022-08-03T17:53:07.455Z,33.58
2022-08-03T17:55:58.553Z,33.55
2022-08-03T17:58:36.372Z,33.51
2022-08-03T18:02:00.050Z,33.42
2022-08-03T18:04:14.923Z,33.33
2022-08-03T18:06:55.925Z,33.17
2022-08-03T18:10:04.315Z,33.05
2022-08-03T18:12:28.166Z,32.98
2022-08-03T18:15:07.857Z,32.96
2022-08-03T18:17:57.928Z,32.99
2022-08-03T18:20:31.229Z,32.96
2022-08-03T18:23:04.776Z,32.91
2022-08-03T18:25:49.153Z,32.84
2022-08-03T18:28:19.737Z,32.66
2022-08-03T18:30:53.744Z,32.57
2022-08-03T18:34:17.626Z,32.50
2022-08-03T18:36:18.069Z,32.34
2022-08-03T18:38:51.890Z,32.31
2022-08-03T18:41:33.540Z,32.21
2022-08-03T18:44:38.023Z,32.13
2022-08-03T18:47:50.891Z,32.01
2022-08-03T18:50:34.550Z,31.89
2022-08-03T18:53:16.526Z,31.76
2022-08-03T18:56:02.681Z,31.62
2022-08-03T18:58:54.870Z,31.48
2022-08-03T19:01:58.937Z,31.27
2022-08-03T19:04:36.669Z,31.22
2022-08-03T19:07:09.252Z,31.10
2022-08-03T19:09:49.349Z,30.96
2022-08-03T19:12:31.189Z,30.86
2022-08-03T19:15:10.366Z,30.79
2022-08-03T19:17:50.154Z,30.67
2022-08-03T19:20:25.880Z,30.57
2022-08-03T19:22:54.982Z,30.50
2022-08-03T19:25:34.381Z,30.50
2022-08-03T19:28:06.152Z,30.43
2022-08-03T19:30:46.427Z,30.34
2022-08-03T19:33:22.685Z,30.25
2022-08-03T19:35:55.306Z,30.11
2022-08-03T19:38:28.594Z,30.00
2022-08-03T19:41:00.779Z,29.95
2022-08-03T19:43:53.294Z,29.81
2022-08-03T19:46:27.683Z,29.74
2022-08-03T19:49:15.353Z,29.72
2022-08-03T19:52:01.163Z,29.72
2022-08-03T19:54:52.932Z,29.63
2022-08-03T19:57:25.194Z,29.57
2022-08-03T19:59:55.082Z,29.50
2022-08-03T20:02:26.064Z,29.38
2022-08-03T20:04:57.226Z,29.23
2022-08-03T20:07:26.011Z,29.28
2022-08-03T20:09:56.317Z,29.18
2022-08-03T20:12:29.003Z,29.19
2022-08-03T20:14:59.904Z,29.16
2022-08-03T20:17:56.883Z,29.17
2022-08-03T20:20:24.286Z,29.03
2022-08-03T20:22:57.641Z,28.91
2022-08-03T20:25:38.468Z,28.77
2022-08-03T20:28:15.038Z,28.69
2022-08-03T20:30:46.402Z,28.61
2022-08-03T20:33:18.794Z,28.56
2022-08-03T20:36:03.532Z,28.56
2022-08-03T20:38:31.207Z,28.57
2022-08-03T20:40:59.290Z,28.52
2022-08-03T20:43:26.703Z,28.43
2022-08-03T20:46:00.391Z,28.35
2022-08-03T20:48:42.724Z,28.29
2022-08-03T20:51:20.127Z,28.23
2022-08-03T20:54:23.089Z,28.17
2022-08-03T20:56:53.035Z,28.12
2022-08-03T20:59:20.870Z,28.05
2022-08-03T21:01:48.436Z,27.97
2022-08-03T21:04:20.938Z,27.97
2022-08-03T21:07:00.080Z,27.96
2022-08-03T21:09:44.044Z,27.87
2022-08-03T21:12:18.929Z,27.89
2022-08-03T21:16:06.176Z,27.81
2022-08-03T21:18:14.657Z,27.76
2022-08-03T21:20:45.700Z,27.71
2022-08-03T21:23:41.534Z,27.74
2022-08-03T21:26:02.637Z,27.68
2022-08-03T21:28:30.225Z,27.66
2022-08-03T21:30:59.820Z,27.55
2022-08-03T21:33:28.141Z,27.48
2022-08-03T21:35:55.632Z,27.37
2022-08-03T21:38:29.667Z,27.40
2022-08-03T21:40:58.614Z,27.36
2022-08-03T21:43:25.818Z,27.35
2022-08-03T21:46:01.051Z,27.20
2022-08-03T21:48:37.233Z,27.13
2022-08-03T21:51:09.373Z,27.06
2022-08-03T21:54:00.295Z,27.03
2022-08-03T21:56:27.988Z,26.94
2022-08-03T21:59:04.502Z,26.87
2022-08-03T22:01:35.633Z,26.80
2022-08-03T22:04:09.393Z,26.79
2022-08-03T22:06:55.207Z,26.75
2022-08-03T22:09:22.984Z,26.72
2022-08-03T22:11:54.118Z,26.80
2022-08-03T22:14:40.731Z,26.76
2022-08-03T22:17:07.875Z,26.77
2022-08-03T22:19:35.994Z,26.76
2022-08-03T22:22:08.539Z,26.75
2022-08-03T22:24:38.811Z,26.68
2022-08-03T22:27:24.614Z,26.58
2022-08-03T22:29:53.075Z,26.57
2022-08-03T22:32:20.596Z,26.51
2022-08-03T22:34:49.436Z,26.43
2022-08-03T22:37:19.376Z,26.35
2022-08-03T22:39:46.968Z,26.26
2022-08-03T22:42:14.213Z,26.10
2022-08-03T22:44:41.254Z,26.12
2022-08-03T22:47:10.525Z,26.07
2022-08-03T22:49:37.898Z,25.95
2022-08-03T22:52:07.496Z,25.88
2022-08-03T22:54:35.931Z,25.94
2022-08-03T22:57:05.256Z,26.01
2022-08-03T22:59:41.438Z,25.98
2022-08-03T23:02:21.783Z,25.93
2022-08-03T23:05:01.627Z,25.84
2022-08-03T23:07:32.864Z,25.83
2022-08-03T23:10:04.299Z,25.80
2022-08-03T23:12:36.938Z,25.76
2022-08-03T23:15:08.829Z,25.77
2022-08-03T23:17:57.415Z,25.77
2022-08-03T23:20:26.846Z,25.75
2022-08-03T23:22:57.814Z,25.73
2022-08-03T23:25:25.436Z,25.77
2022-08-03T23:28:05.627Z,25.76
2022-08-03T23:30:37.214Z,25.77
2022-08-03T23:33:06.564Z,25.77
2022-08-03T23:36:29.005Z,25.78
2022-08-03T23:38:40.382Z,25.74
2022-08-03T23:41:09.274Z,25.65
2022-08-03T23:43:44.965Z,25.58
2022-08-03T23:46:21.203Z,25.44
2022-08-03T23:48:48.353Z,25.41
2022-08-03T23:51:44.638Z,25.38
2022-08-03T23:54:41.248Z,25.35
2022-08-03T23:57:51.064Z,25.34
